Time;durP1;ratioP1;P1;durP2;ratioP2;P2;SDS_P1;SDS_P2;PMS_P1;PMS_P2;Temp;Humidity;BMP_temperature;BMP_pressure;BME280_temperature;BME280_humidity;BME280_pressure;Samples;Min_cycle;Max_cycle;Signal;HPM_P1;HPM_P2
2022/07/15 00:03:21;;;;;;;13.60;12.30;;;;;;;17.19;88.59;98426.70;222159;1268;22627;-72
2022/07/15 00:08:57;;;;;;;;;;;;;;;;;;;;;
2022/07/15 00:14:44;;;;;;;13.20;11.90;;;;;;;17.16;88.67;98424.73;222072;1268;22545;-73
2022/07/15 00:20:21;;;;;;;11.50;10.40;;;;;;;17.15;89.03;98414.67;214569;1268;25322;-72
2022/07/15 00:25:23;;;;;;;11.10;10.10;;;;;;;17.08;89.28;98400.56;221974;1268;25437;-73
2022/07/15 00:30:31;;;;;;;13.00;11.80;;;;;;;16.98;89.27;98402.73;221798;1268;22554;-73
2022/07/15 00:35:39;;;;;;;12.60;11.30;;;;;;;16.89;89.17;98410.34;221829;1268;25326;-71
2022/07/15 00:40:45;;;;;;;12.30;11.20;;;;;;;16.83;89.24;98410.20;221826;1268;22584;-73
2022/07/15 00:45:48;;;;;;;11.80;10.60;;;;;;;16.79;89.61;98405.59;221732;1268;22550;-72
2022/07/15 00:50:50;;;;;;;13.00;11.70;;;;;;;16.76;89.72;98412.77;221495;1268;22543;-73
2022/07/15 00:55:59;;;;;;;12.30;11.10;;;;;;;16.79;89.65;98411.76;221392;1268;25399;-73
2022/07/15 01:01:04;;;;;;;9.40;8.60;;;;;;;16.82;89.69;98419.89;221756;1268;22533;-72
2022/07/15 01:06:27;;;;;;;12.00;10.90;;;;;;;16.83;89.53;98422.02;221845;1268;22540;-72
2022/07/15 01:12:21;;;;;;;11.80;10.70;;;;;;;16.77;89.34;98421.84;221815;1268;22706;-73
2022/07/15 01:17:25;;;;;;;13.00;11.10;;;;;;;16.72;89.26;98414.88;221858;1268;24310;-72
2022/07/15 01:22:29;;;;;;;11.80;10.80;;;;;;;16.67;89.26;98415.48;221900;1268;22675;-72
2022/07/15 01:27:32;;;;;;;11.90;10.50;;;;;;;16.56;89.13;98412.83;221811;1268;22553;-72
2022/07/15 01:32:35;;;;;;;12.60;11.30;;;;;;;16.45;88.88;98416.42;221582;1271;25794;-73
2022/07/15 01:37:37;;;;;;;12.80;11.30;;;;;;;16.32;88.58;98413.13;221555;1268;25453;-73
2022/07/15 01:42:40;;;;;;;11.90;10.70;;;;;;;16.19;88.42;98412.00;221461;1271;22567;-72
2022/07/15 01:47:47;;;;;;;11.80;10.20;;;;;;;16.06;88.47;98412.63;221770;1268;23288;-72
2022/07/15 01:53:10;;;;;;;11.60;10.50;;;;;;;15.93;88.42;98417.59;221586;1271;24325;-72
2022/07/15 01:58:18;;;;;;;13.70;10.50;;;;;;;15.79;88.35;98414.77;221777;1268;25367;-74
2022/07/15 02:03:33;;;;;;;;;;;;;;;15.67;88.45;98418.41;221842;1268;22579;-73
2022/07/15 02:08:36;;;;;;;14.50;10.60;;;;;;;15.56;88.59;98425.11;221922;1268;22535;-72
2022/07/15 02:13:41;;;;;;;14.60;10.70;;;;;;;15.42;88.50;98430.10;221772;1268;22545;-73
2022/07/15 02:18:56;;;;;;;13.80;11.70;;;;;;;15.30;88.52;98430.16;221815;1268;22580;-72
2022/07/15 02:23:58;;;;;;;11.10;9.40;;;;;;;15.18;88.58;98437.91;221840;1268;22651;-72
2022/07/15 02:29:01;;;;;;;12.20;10.90;;;;;;;15.07;88.81;98456.29;222007;1268;25873;-72
2022/07/15 02:34:04;;;;;;;12.10;10.20;;;;;;;14.98;89.07;98459.89;222173;1268;23921;-72
2022/07/15 02:39:07;;;;;;;13.10;11.00;;;;;;;14.90;89.22;98470.11;221920;1268;25399;-72
2022/07/15 02:44:34;;;;;;;12.10;10.90;;;;;;;14.81;89.28;98473.44;222050;1268;22555;-72
2022/07/15 02:49:35;;;;;;;12.30;10.90;;;;;;;14.74;89.45;98478.61;222139;1268;22556;-72
2022/07/15 02:54:38;;;;;;;14.30;10.60;;;;;;;14.67;89.47;98478.35;222037;1268;23500;-73
2022/07/15 02:59:41;;;;;;;11.70;10.50;;;;;;;14.60;89.62;98493.06;221740;1268;25358;-72
2022/07/15 03:04:44;;;;;;;14.60;11.80;;;;;;;14.55;89.76;98504.55;222049;1268;25385;-73
2022/07/15 03:09:47;;;;;;;12.80;11.40;;;;;;;14.49;89.86;98508.77;221888;1268;25910;-72
2022/07/15 03:14:49;;;;;;;12.60;11.30;;;;;;;14.44;90.15;98517.95;221844;1267;26415;-72
2022/07/15 03:19:52;;;;;;;15.40;11.40;;;;;;;14.39;90.26;98537.08;221799;1268;22662;-72
2022/07/15 03:24:54;;;;;;;11.40;10.20;;;;;;;14.34;90.41;98551.02;221867;1268;26376;-72
2022/07/15 03:29:57;;;;;;;12.50;9.90;;;;;;;14.30;90.47;98557.09;221846;1268;25332;-72
2022/07/15 03:35:00;;;;;;;13.00;8.60;;;;;;;14.33;90.24;98568.60;221813;1268;22570;-72
2022/07/15 03:40:05;;;;;;;9.70;8.10;;;;;;;14.47;90.08;98577.40;221952;1268;24479;-72
2022/07/15 03:45:11;;;;;;;11.10;7.90;;;;;;;14.69;89.72;98589.16;222036;1268;26580;-73
2022/07/15 03:50:14;;;;;;;10.10;6.40;;;;;;;14.94;89.05;98595.49;221992;1268;25411;-73
2022/07/15 03:55:16;;;;;;;8.20;6.60;;;;;;;15.19;87.96;98602.42;221955;1268;25250;-72
2022/07/15 04:00:22;;;;;;;8.50;7.60;;;;;;;15.46;87.21;98605.63;222107;1268;22551;-72
2022/07/15 04:05:25;;;;;;;8.00;6.30;;;;;;;15.78;86.31;98606.64;222040;1268;22544;-72
2022/07/15 04:10:27;;;;;;;8.70;5.40;;;;;;;15.95;85.21;98613.23;221577;1271;22557;-73
2022/07/15 04:15:30;;;;;;;7.90;4.90;;;;;;;15.93;84.44;98617.80;221803;1269;22541;-73
2022/07/15 04:20:50;;;;;;;7.20;5.10;;;;;;;15.87;84.07;98617.49;221630;1268;22550;-72
2022/07/15 04:25:54;;;;;;;5.50;4.50;;;;;;;15.67;83.29;98616.00;221884;1268;22553;-73
2022/07/15 04:31:00;;;;;;;6.50;4.90;;;;;;;15.49;83.24;98622.48;221955;1268;22541;-71
2022/07/15 04:36:10;;;;;;;8.20;4.80;;;;;;;15.35;83.03;98639.09;221659;1268;25295;-73
2022/07/15 04:41:13;;;;;;;7.20;4.30;;;;;;;15.17;82.99;98661.95;221557;1268;22526;-72
2022/07/15 04:46:18;;;;;;;5.50;5.00;;;;;;;15.00;82.92;98665.95;222027;1268;25232;-73
2022/07/15 04:51:27;;;;;;;7.80;4.70;;;;;;;14.89;83.05;98671.17;221506;1268;22681;-73
2022/07/15 05:08:12;;;;;;;7.60;4.30;;;;;;;14.88;83.42;98689.25;221868;1268;23020;-73
2022/07/15 05:13:24;;;;;;;8.70;4.70;;;;;;;14.95;83.37;98701.56;221937;1268;24189;-72
2022/07/15 05:18:30;;;;;;;7.40;4.50;;;;;;;14.97;82.91;98708.13;222092;1268;22717;-73
2022/07/15 05:23:34;;;;;;;6.10;4.60;;;;;;;14.96;82.55;98710.98;222076;1268;22560;-73
2022/07/15 05:28:39;;;;;;;6.10;4.20;;;;;;;14.98;82.49;98719.33;221764;1271;22568;-72
2022/07/15 05:33:53;;;;;;;7.30;4.50;;;;;;;14.97;82.11;98723.08;221768;1268;22527;-72
2022/07/15 05:38:58;;;;;;;6.50;3.70;;;;;;;14.99;81.79;98730.79;221762;1268;22554;-73
2022/07/15 05:44:12;;;;;;;6.60;4.10;;;;;;;14.97;81.44;98743.31;221800;1271;22594;-73
2022/07/15 05:49:19;;;;;;;7.50;3.80;;;;;;;15.00;81.47;98750.10;221828;1271;22542;-72
2022/07/15 05:54:55;;;;;;;7.20;3.50;;;;;;;15.05;81.10;98755.13;222201;1268;25146;-73
2022/07/15 06:00:05;;;;;;;6.00;3.80;;;;;;;15.09;80.82;98763.29;222731;1268;22559;-72
2022/07/15 06:05:24;;;;;;;7.00;3.50;;;;;;;15.15;80.29;98771.71;222348;1268;22534;-72
2022/07/15 06:10:30;;;;;;;4.30;2.70;;;;;;;15.23;80.09;98778.21;222570;1268;22535;-73
2022/07/15 06:15:33;;;;;;;3.60;2.20;;;;;;;15.28;79.23;98783.52;222141;1268;24154;-71
2022/07/15 06:20:39;;;;;;;3.90;2.50;;;;;;;15.33;79.05;98782.11;222308;1268;24216;-71
2022/07/15 06:25:42;;;;;;;2.90;1.80;;;;;;;15.40;77.90;98787.22;221692;1271;22653;-71
2022/07/15 06:30:44;;;;;;;2.80;1.80;;;;;;;15.45;77.68;98794.77;222139;1268;22714;-71
2022/07/15 06:35:47;;;;;;;5.10;2.00;;;;;;;15.54;77.20;98796.75;222509;1268;24396;-72
2022/07/15 06:40:49;;;;;;;3.50;1.70;;;;;;;15.67;76.73;98809.66;222317;1268;27160;-73
2022/07/15 06:45:52;;;;;;;3.60;1.50;;;;;;;15.80;76.23;98816.06;222263;1268;22548;-73
2022/07/15 06:50:57;;;;;;;3.60;1.80;;;;;;;15.91;75.33;98827.73;222259;1268;24219;-72
2022/07/15 06:56:00;;;;;;;1.90;1.30;;;;;;;16.04;74.96;98831.29;222308;1268;22497;-72
2022/07/15 07:01:02;;;;;;;1.50;1.10;;;;;;;16.20;74.34;98835.93;222274;1268;22567;-72
2022/07/15 07:06:05;;;;;;;1.30;0.70;;;;;;;16.33;72.74;98841.16;222064;1268;22724;-72
2022/07/15 07:11:12;;;;;;;3.30;0.90;;;;;;;16.34;70.44;98842.65;221980;1268;22569;-72
2022/07/15 07:16:28;;;;;;;1.30;0.80;;;;;;;16.40;70.27;98849.34;221958;1271;22548;-74
2022/07/15 07:21:32;;;;;;;1.80;0.80;;;;;;;16.63;70.38;98852.61;221709;1270;22702;-72
2022/07/15 07:26:35;;;;;;;1.50;0.80;;;;;;;16.74;69.27;98858.36;221953;1270;23247;-72
2022/07/15 07:31:38;;;;;;;1.20;0.90;;;;;;;16.84;69.03;98861.39;221887;1270;25044;-72
2022/07/15 07:36:40;;;;;;;2.50;1.20;;;;;;;17.13;69.28;98864.17;221551;1271;22562;-72
2022/07/15 07:41:43;;;;;;;1.00;0.90;;;;;;;17.31;68.25;98872.90;221973;1270;24265;-72
2022/07/15 07:46:47;;;;;;;3.40;0.90;;;;;;;17.45;66.47;98875.13;221922;1271;22571;-72
2022/07/15 07:52:02;;;;;;;1.40;1.00;;;;;;;17.54;66.00;98882.77;221797;1270;22687;-72
2022/07/15 07:57:19;;;;;;;2.20;1.00;;;;;;;17.74;65.89;98886.20;222319;1268;22595;-74
2022/07/15 08:02:23;;;;;;;1.90;1.00;;;;;;;17.90;65.55;98889.94;221894;1268;22525;-71
2022/07/15 08:07:26;;;;;;;2.90;0.90;;;;;;;18.09;64.85;98890.66;221875;1268;22722;-71
2022/07/15 08:12:33;;;;;;;1.00;0.90;;;;;;;18.21;64.06;98895.41;222014;1268;22525;-71
2022/07/15 08:17:37;;;;;;;3.70;0.90;;;;;;;18.23;62.75;98897.59;222334;1268;24329;-71
2022/07/15 08:22:45;;;;;;;3.50;1.00;;;;;;;18.27;62.88;98893.15;222048;1268;22743;-71
2022/07/15 08:27:47;;;;;;;1.60;0.70;;;;;;;18.41;61.92;98893.84;222222;1268;22565;-71
2022/07/15 08:32:57;;;;;;;1.50;0.80;;;;;;;18.50;61.37;98895.73;221503;1270;22764;-72
2022/07/15 08:38:07;;;;;;;1.90;0.80;;;;;;;18.57;61.53;98898.34;221809;1268;23836;-71
2022/07/15 08:43:11;;;;;;;1.20;0.70;;;;;;;18.71;60.12;98904.55;221918;1268;25360;-72
2022/07/15 08:48:14;;;;;;;2.10;1.00;;;;;;;18.83;58.79;98908.16;222012;1268;25406;-72
2022/07/15 08:53:17;;;;;;;4.20;0.80;;;;;;;19.00;57.82;98904.93;221834;1268;22677;-71
2022/07/15 08:58:21;;;;;;;2.50;0.60;;;;;;;19.19;57.52;98905.86;221941;1268;24240;-72
2022/07/15 09:03:44;;;;;;;3.20;1.30;;;;;;;19.48;57.35;98906.00;221458;1270;22569;-72
2022/07/15 09:08:46;;;;;;;2.00;0.70;;;;;;;19.72;56.57;98912.03;221393;1268;22567;-72
2022/07/15 09:13:51;;;;;;;0.80;0.60;;;;;;;19.84;55.25;98920.24;221783;1268;22621;-72
2022/07/15 09:18:54;;;;;;;2.30;0.90;;;;;;;19.86;53.68;98917.25;221757;1268;22829;-72
2022/07/15 09:24:18;;;;;;;1.40;0.60;;;;;;;19.72;53.41;98923.48;221551;1268;23350;-72
2022/07/15 09:40:49;;;;;;;1.60;0.90;;;;;;;19.85;51.41;98917.61;222099;1268;22540;-72
2022/07/15 09:46:01;;;;;;;2.50;0.90;;;;;;;20.13;50.91;98915.89;221696;1271;22537;-71
2022/07/15 09:51:04;;;;;;;1.30;0.90;;;;;;;20.44;50.90;98912.30;221810;1269;23434;-72
2022/07/15 09:56:10;;;;;;;1.10;0.60;;;;;;;20.69;50.56;98909.36;221612;1268;23006;-72
2022/07/15 10:01:13;;;;;;;2.50;1.00;;;;;;;20.96;50.15;98909.45;221867;1268;22525;-72
2022/07/15 10:06:19;;;;;;;0.70;0.70;;;;;;;21.06;49.56;98910.83;221981;1268;24642;-72
2022/07/15 10:11:22;;;;;;;2.40;0.80;;;;;;;20.82;48.52;98915.17;222417;1269;22611;-73
2022/07/15 10:16:31;;;;;;;1.40;0.90;;;;;;;20.73;48.40;98912.11;222036;1270;22547;-73
2022/07/15 10:21:45;;;;;;;1.60;1.00;;;;;;;20.56;48.17;98912.81;222262;1269;22653;-72
2022/07/15 10:27:26;;;;;;;1.40;0.50;;;;;;;20.66;48.74;98911.91;222358;1271;22642;-73
2022/07/15 10:33:02;;;;;;;2.20;0.80;;;;;;;20.88;48.26;98913.23;221969;1268;22525;-72
2022/07/15 10:38:27;;;;;;;1.10;0.90;;;;;;;20.89;47.57;98903.66;221924;1269;23443;-73
2022/07/15 10:43:46;;;;;;;2.40;0.70;;;;;;;20.98;47.22;98905.77;222091;1271;25378;-73
2022/07/15 10:48:52;;;;;;;1.70;1.10;;;;;;;20.87;47.54;98900.76;222269;1268;23108;-73
2022/07/15 10:54:06;;;;;;;1.30;0.90;;;;;;;20.99;47.95;98894.55;222199;1268;22646;-74
2022/07/15 10:59:11;;;;;;;1.20;0.70;;;;;;;21.11;47.01;98906.10;222970;1261;25395;-70
2022/07/15 11:04:19;;;;;;;1.20;1.00;;;;;;;21.00;45.26;98903.98;221731;1270;23043;-69
2022/07/15 11:09:43;;;;;;;1.30;1.00;;;;;;;21.18;45.98;98890.70;221832;1270;22554;-70
2022/07/15 11:14:58;;;;;;;1.40;0.80;;;;;;;21.44;45.85;98893.33;221507;1271;24137;-70
2022/07/15 11:20:49;;;;;;;2.60;1.30;;;;;;;21.71;45.88;98889.39;222179;1264;24359;31
2022/07/15 11:25:51;;;;;;;1.70;1.30;;;;;;;21.47;45.24;98895.56;221527;1271;22575;-72
2022/07/15 11:30:59;;;;;;;1.90;0.90;;;;;;;21.38;45.20;98899.27;219802;1282;22742;-71
2022/07/15 11:36:24;;;;;;;2.70;1.20;;;;;;;21.17;44.72;98883.30;219829;1282;25421;-72
2022/07/15 11:46:59;;;;;;;2.00;0.80;;;;;;;21.13;43.09;98876.73;221553;1280;24157;-72
2022/07/15 11:52:40;;;;;;;1.60;1.10;;;;;;;21.14;42.94;98884.55;221850;1279;22693;-72
2022/07/15 11:57:54;;;;;;;1.30;1.20;;;;;;;21.28;43.97;98874.41;221918;1279;22722;-72
2022/07/15 12:03:54;;;;;;;3.00;1.00;;;;;;;21.45;43.57;98882.45;221896;1280;22599;-73
2022/07/15 12:43:56;;;;;;;1.20;1.00;;;;;;;21.94;42.18;98871.63;219653;1311;543139;-67
2022/07/15 12:49:07;;;;;;;1.50;1.00;;;;;;;21.86;41.27;98871.67;219192;1290;24822;-69
2022/07/15 12:54:22;;;;;;;1.10;0.80;;;;;;;21.79;41.53;98869.66;217863;1286;221841;-71
2022/07/15 12:59:48;;;;;;;0.60;0.60;;;;;;;21.75;40.45;98873.17;218358;1286;22579;-69
2022/07/15 13:04:53;;;;;;;4.60;0.80;;;;;;;21.61;40.32;98871.04;218357;1286;24435;-68
2022/07/15 13:09:56;;;;;;;2.90;1.20;;;;;;;21.54;39.74;98867.31;218372;1286;24333;-68
2022/07/15 13:15:11;;;;;;;1.30;0.90;;;;;;;21.47;40.10;98872.38;218553;1286;24256;-68
2022/07/15 13:20:34;;;;;;;1.00;0.80;;;;;;;21.44;40.02;98875.82;218441;1286;24414;-68
2022/07/15 13:25:40;;;;;;;1.70;0.70;;;;;;;21.46;40.06;98880.84;218908;1283;24447;-67
2022/07/15 13:31:07;;;;;;;1.10;0.80;;;;;;;21.42;39.98;98882.23;218977;1283;22571;-67
2022/07/15 13:36:42;;;;;;;0.60;0.60;;;;;;;21.44;39.94;98879.48;218971;1283;24380;-66
2022/07/15 13:41:45;;;;;;;0.70;0.70;;;;;;;21.40;39.33;98877.27;218871;1283;22584;-68
2022/07/15 13:47:00;;;;;;;0.80;0.70;;;;;;;21.40;39.33;98877.82;219145;1283;22565;-68
2022/07/15 13:52:04;;;;;;;0.80;0.60;;;;;;;21.46;39.79;98874.21;219019;1283;24102;-69
2022/07/15 13:57:07;;;;;;;2.50;0.70;;;;;;;21.45;40.20;98876.93;218986;1283;22539;-70
2022/07/15 14:02:09;;;;;;;1.80;0.70;;;;;;;21.46;40.22;98876.23;218954;1283;22605;-69
2022/07/15 14:07:12;;;;;;;0.70;0.60;;;;;;;21.54;39.89;98881.10;218760;1283;24316;-69
2022/07/15 14:12:27;;;;;;;0.90;0.60;;;;;;;21.62;39.66;98871.21;219058;1283;22772;-67
2022/07/15 14:17:33;;;;;;;0.60;0.50;;;;;;;21.69;39.98;98876.17;218784;1283;24526;-69
2022/07/15 14:22:36;;;;;;;0.70;0.60;;;;;;;21.84;39.99;98878.48;218613;1283;22651;-69
2022/07/15 14:27:47;;;;;;;1.70;0.70;;;;;;;21.96;39.58;98870.44;218712;1283;25362;-68
2022/07/15 14:32:53;;;;;;;0.70;0.50;;;;;;;21.95;39.19;98863.33;218749;1283;24120;-69
2022/07/15 14:38:10;;;;;;;2.70;0.70;;;;;;;21.96;39.09;98864.20;218333;1283;22575;-68
2022/07/15 14:43:35;;;;;;;2.20;1.70;;;;;;;21.88;38.75;98870.05;219020;1283;22802;-68
2022/07/15 14:48:38;;;;;;;1.50;0.90;;;;;;;21.79;38.70;98876.20;218789;1284;22566;-69
2022/07/15 14:53:45;;;;;;;1.00;0.70;;;;;;;21.74;39.03;98868.62;218767;1283;22548;-68
2022/07/15 14:59:03;;;;;;;0.90;0.60;;;;;;;21.81;39.28;98869.00;218332;1283;22617;-70
2022/07/15 15:04:09;;;;;;;1.20;0.80;;;;;;;21.76;38.61;98873.66;219090;1284;22595;-69
2022/07/15 15:09:11;;;;;;;1.40;0.70;;;;;;;21.74;39.04;98873.92;218774;1284;22501;-70
2022/07/15 15:14:24;;;;;;;;;;;;;;;;;;;;;
2022/07/15 15:19:29;;;;;;;1.20;0.70;;;;;;;21.81;39.05;98876.86;219628;1280;22538;-69
2022/07/15 15:24:33;;;;;;;1.20;0.70;;;;;;;21.79;39.00;98886.42;220008;1278;23856;-68
2022/07/15 15:29:37;;;;;;;2.60;0.60;;;;;;;21.74;38.93;98893.79;219811;1280;22701;-71
2022/07/15 15:34:40;;;;;;;1.60;0.70;;;;;;;21.61;38.79;98895.40;219687;1278;22717;-70
2022/07/15 15:39:43;;;;;;;0.80;0.80;;;;;;;21.57;38.76;98889.27;219611;1280;23492;-70
2022/07/15 15:44:45;;;;;;;2.70;0.70;;;;;;;21.57;38.78;98888.47;219689;1278;23825;-70
2022/07/15 15:49:49;;;;;;;0.80;0.80;;;;;;;21.50;38.41;98888.41;219687;1278;24136;-69
2022/07/15 15:54:51;;;;;;;2.00;0.90;;;;;;;21.46;38.88;98891.66;219765;1280;24392;-70
2022/07/15 15:59:54;;;;;;;1.30;0.90;;;;;;;21.44;38.94;98891.32;219735;1280;22561;-69
2022/07/15 16:04:56;;;;;;;1.70;0.70;;;;;;;21.43;38.93;98899.48;219670;1278;25239;-69
2022/07/15 16:10:31;;;;;;;0.70;0.70;;;;;;;21.31;38.77;98896.73;219714;1278;22696;-70
2022/07/15 16:15:38;;;;;;;2.40;1.00;;;;;;;21.28;39.04;98894.25;219700;1278;25455;-69
2022/07/15 16:20:40;;;;;;;1.10;0.90;;;;;;;21.32;39.36;98895.27;219621;1280;25332;-70
2022/07/15 16:25:45;;;;;;;3.50;0.80;;;;;;;21.36;39.19;98895.19;219689;1278;26525;-70
2022/07/15 16:30:49;;;;;;;1.20;0.70;;;;;;;21.31;38.86;98896.58;219739;1278;23459;-70
2022/07/15 16:36:04;;;;;;;1.10;0.70;;;;;;;21.26;39.03;98895.84;219798;1280;22630;-69
2022/07/15 16:41:26;;;;;;;1.60;0.70;;;;;;;21.25;38.86;98898.85;219732;1280;22723;-69
2022/07/15 16:46:29;;;;;;;2.30;1.10;;;;;;;21.13;38.58;98896.57;219757;1278;25309;-70
2022/07/15 16:51:31;;;;;;;1.00;0.70;;;;;;;21.08;39.13;98897.09;219846;1278;24585;-72
2022/07/15 16:56:34;;;;;;;1.40;0.80;;;;;;;21.08;39.15;98895.78;219841;1280;22562;-69
2022/07/15 17:01:36;;;;;;;1.60;0.60;;;;;;;21.02;39.17;98892.84;219647;1280;22712;-69
2022/07/15 17:06:44;;;;;;;1.90;0.60;;;;;;;20.98;39.36;98899.91;219865;1280;22732;-70
2022/07/15 17:11:46;;;;;;;3.40;0.90;;;;;;;20.93;39.30;98902.45;219872;1280;23957;-68
2022/07/15 17:16:49;;;;;;;0.80;0.70;;;;;;;20.88;39.01;98904.59;219865;1280;22544;-70
2022/07/15 17:21:54;;;;;;;1.40;0.90;;;;;;;21.53;39.52;98904.55;219991;1279;25322;-69
2022/07/15 17:26:56;;;;;;;1.80;0.90;;;;;;;23.10;39.31;98901.79;219862;1279;22797;-69
2022/07/15 17:31:59;;;;;;;1.00;0.80;;;;;;;24.25;37.95;98907.86;219790;1278;22580;-70
2022/07/15 17:37:03;;;;;;;2.90;1.30;;;;;;;25.13;36.88;98909.15;219919;1278;24285;-69
2022/07/15 17:42:06;;;;;;;1.90;1.20;;;;;;;25.75;35.47;98907.73;219869;1278;23676;-68
2022/07/15 17:47:09;;;;;;;4.10;1.20;;;;;;;25.16;34.83;98909.40;219801;1280;24251;-70
2022/07/15 17:52:11;;;;;;;3.90;1.10;;;;;;;23.89;35.01;98913.48;219858;1280;22555;-70
2022/07/15 17:57:18;;;;;;;3.70;1.10;;;;;;;22.76;36.10;98912.15;219696;1279;25455;-69
2022/07/15 18:02:20;;;;;;;2.70;1.10;;;;;;;21.86;37.06;98912.41;219875;1278;25232;-68
2022/07/15 18:07:23;;;;;;;2.90;1.00;;;;;;;21.17;37.90;98916.67;220285;1278;22616;-69
2022/07/15 18:12:26;;;;;;;2.00;0.90;;;;;;;20.59;38.43;98920.00;219956;1278;22619;-70
2022/07/15 18:17:36;;;;;;;3.90;1.20;;;;;;;20.11;39.32;98925.77;219930;1277;25635;-71
2022/07/15 18:22:56;;;;;;;2.60;0.90;;;;;;;19.67;39.90;98926.75;219880;1277;26379;-69
2022/07/15 18:28:05;;;;;;;2.10;0.90;;;;;;;19.35;40.73;98926.35;219905;1278;24354;-69
2022/07/15 18:33:16;;;;;;;1.50;1.10;;;;;;;19.06;41.45;98925.25;219759;1278;24040;-69
2022/07/15 18:38:28;;;;;;;15.80;11.10;;;;;;;18.74;42.23;98922.86;219877;1278;26493;-70
2022/07/15 18:43:35;;;;;;;16.30;12.00;;;;;;;18.42;42.99;98926.95;219785;1278;25481;-69
2022/07/15 18:48:40;;;;;;;5.40;4.10;;;;;;;18.11;43.37;98937.36;219773;1278;26523;-70
2022/07/15 18:53:43;;;;;;;3.40;2.40;;;;;;;17.81;43.87;98947.59;219760;1277;22548;-69
2022/07/15 18:58:48;;;;;;;18.10;13.60;;;;;;;17.55;44.33;98950.55;219603;1278;23973;-70
2022/07/15 19:03:51;;;;;;;7.10;4.80;;;;;;;17.33;44.91;98952.73;219790;1278;25264;-70
2022/07/15 19:08:54;;;;;;;4.10;2.00;;;;;;;17.12;45.51;98957.89;219737;1278;24230;-69
2022/07/15 19:13:56;;;;;;;2.70;1.50;;;;;;;16.92;46.04;98957.72;219857;1278;22618;-67
2022/07/15 19:18:59;;;;;;;2.80;1.60;;;;;;;16.73;46.59;98962.65;219994;1277;25182;-70
2022/07/15 19:24:03;;;;;;;5.70;1.60;;;;;;;16.54;47.15;98968.21;219827;1278;22502;-69
2022/07/15 19:29:05;;;;;;;2.20;1.30;;;;;;;16.35;47.22;98969.07;219905;1278;22570;-71
2022/07/15 19:34:08;;;;;;;2.70;1.50;;;;;;;16.19;47.99;98976.29;219956;1278;22569;-69
2022/07/15 19:39:11;;;;;;;2.80;1.40;;;;;;;16.03;48.88;98978.43;219947;1277;22579;-68
2022/07/15 19:44:16;;;;;;;1.80;1.40;;;;;;;15.88;49.35;98976.31;219820;1278;22599;-70
2022/07/15 19:49:28;;;;;;;2.00;1.70;;;;;;;15.72;50.11;98974.19;219764;1278;24266;-69
2022/07/15 19:54:36;;;;;;;4.10;2.10;;;;;;;15.55;50.78;98978.11;219650;1277;22617;-72
2022/07/15 20:05:00;;;;;;;3.70;2.10;;;;;;;15.22;52.34;98981.20;219744;1278;22537;-70
2022/07/15 20:10:03;;;;;;;7.10;2.70;;;;;;;15.10;52.93;98981.69;219829;1277;22553;-69
2022/07/15 20:15:08;;;;;;;5.20;2.50;;;;;;;14.97;53.47;98981.70;219780;1278;22709;-68
2022/07/15 20:20:27;;;;;;;5.50;2.70;;;;;;;14.85;54.23;98987.63;219838;1277;22553;-70
2022/07/15 20:25:50;;;;;;;4.50;2.10;;;;;;;14.74;55.03;98987.83;219746;1278;22588;-70
2022/07/15 20:30:53;;;;;;;5.10;3.10;;;;;;;14.65;55.75;98986.92;219748;1278;22641;-70
2022/07/15 20:35:58;;;;;;;6.60;3.50;;;;;;;14.55;56.14;98983.17;219868;1278;22634;-69
2022/07/15 20:41:01;;;;;;;5.50;3.50;;;;;;;14.50;56.43;98991.91;219698;1278;24392;-69
2022/07/15 20:46:03;;;;;;;6.20;3.40;;;;;;;14.48;56.48;98990.77;219845;1277;22620;-70
2022/07/15 20:51:06;;;;;;;5.30;4.00;;;;;;;14.45;57.01;98991.50;219771;1277;22613;-70
2022/07/15 20:56:08;;;;;;;6.50;3.70;;;;;;;14.40;57.67;98992.60;219716;1277;22592;-70
2022/07/15 21:01:12;;;;;;;4.40;2.90;;;;;;;14.33;58.00;98996.02;219703;1278;25251;-70
2022/07/15 21:06:20;;;;;;;6.00;3.60;;;;;;;14.22;58.43;98999.49;220016;1278;22582;-70
2022/07/15 21:11:23;;;;;;;6.00;3.50;;;;;;;14.11;58.62;98996.07;219643;1277;22728;-70
2022/07/15 21:16:25;;;;;;;7.10;4.60;;;;;;;14.03;59.20;98997.65;220021;1278;25338;-70
2022/07/15 21:21:28;;;;;;;8.40;4.40;;;;;;;13.94;59.50;98997.00;219726;1278;22543;-70
2022/07/15 21:26:44;;;;;;;6.40;3.40;;;;;;;13.86;59.81;99000.02;219662;1277;22571;-70
2022/07/15 21:31:48;;;;;;;5.50;3.60;;;;;;;13.78;60.12;99006.33;219728;1278;22644;-70
2022/07/15 21:36:51;;;;;;;6.10;3.80;;;;;;;13.72;60.65;99006.31;219780;1278;25255;-69
2022/07/15 21:41:54;;;;;;;6.20;3.40;;;;;;;13.66;61.32;99014.89;219830;1277;22561;-70
2022/07/15 21:46:56;;;;;;;4.90;3.50;;;;;;;13.57;61.76;99010.85;219766;1277;22573;-70
2022/07/15 21:51:59;;;;;;;4.30;3.10;;;;;;;13.47;61.98;99012.56;219687;1277;25334;-70
2022/07/15 21:57:22;;;;;;;4.50;2.90;;;;;;;13.39;62.18;99009.77;219590;1277;25384;-69
2022/07/15 22:02:25;;;;;;;6.40;3.50;;;;;;;13.30;62.46;99013.31;219743;1278;22713;-69
2022/07/15 22:07:27;;;;;;;4.80;3.20;;;;;;;13.22;63.11;99019.48;219863;1277;22542;-69
2022/07/15 22:12:30;;;;;;;6.20;3.70;;;;;;;13.14;63.62;99021.84;219743;1277;22561;-69
2022/07/15 22:17:32;;;;;;;10.50;4.30;;;;;;;13.09;63.58;99017.38;219813;1277;24232;-70
2022/07/15 22:22:35;;;;;;;5.20;3.80;;;;;;;13.02;63.86;99010.94;219830;1278;24810;-71
2022/07/15 22:27:37;;;;;;;5.20;3.40;;;;;;;12.96;63.98;99011.55;219802;1278;22649;-69
2022/07/15 22:32:44;;;;;;;6.30;4.30;;;;;;;12.94;63.96;99009.55;219880;1278;24235;-70
2022/07/15 22:37:46;;;;;;;4.80;3.30;;;;;;;12.94;64.63;99008.57;219929;1277;24264;-71
2022/07/15 22:42:49;;;;;;;4.70;3.20;;;;;;;12.95;65.01;99006.99;220066;1278;24284;-70
2022/07/15 22:47:51;;;;;;;6.90;5.10;;;;;;;12.92;65.37;99006.94;219807;1278;22585;-69
2022/07/15 22:52:53;;;;;;;8.80;5.40;;;;;;;12.90;65.71;99008.48;219860;1278;22577;-70
2022/07/15 22:57:56;;;;;;;8.80;5.20;;;;;;;12.86;66.32;99002.34;219842;1278;22578;-70
2022/07/15 23:03:01;;;;;;;6.00;4.40;;;;;;;12.78;67.08;99004.07;219806;1277;24268;-70
2022/07/15 23:08:18;;;;;;;4.90;3.60;;;;;;;12.69;67.50;99002.31;219812;1277;22560;-70
2022/07/15 23:13:21;;;;;;;5.60;3.80;;;;;;;12.59;67.68;99000.16;219860;1277;24313;-69
2022/07/15 23:18:23;;;;;;;7.20;4.40;;;;;;;12.50;67.84;98990.44;219704;1277;24231;-70
2022/07/15 23:23:26;;;;;;;12.10;4.10;;;;;;;12.42;67.88;98993.27;219753;1277;22590;-71
2022/07/15 23:28:29;;;;;;;6.00;4.40;;;;;;;12.34;68.18;98996.03;219661;1277;22668;-68
2022/07/15 23:33:31;;;;;;;6.50;4.30;;;;;;;12.27;68.45;98991.52;219681;1278;23972;-69
2022/07/15 23:38:34;;;;;;;7.60;4.60;;;;;;;12.20;68.68;98988.42;219667;1277;23823;-69
2022/07/15 23:43:36;;;;;;;7.20;4.10;;;;;;;12.14;68.83;98992.96;219831;1278;22541;-70
2022/07/15 23:48:38;;;;;;;7.40;4.00;;;;;;;12.09;69.19;98992.09;219703;1278;24075;-76
2022/07/15 23:53:41;;;;;;;8.50;4.60;;;;;;;12.03;69.54;98989.70;219630;1278;22636;-70
2022/07/15 23:58:45;;;;;;;8.00;4.80;;;;;;;11.97;69.91;98985.07;219425;1278;26598;-68
